Time;durP1;ratioP1;P1;durP2;ratioP2;P2;SDS_P1;SDS_P2;PMS_P1;PMS_P2;Temp;Humidity;BMP_temperature;BMP_pressure;BME280_temperature;BME280_humidity;BME280_pressure;Samples;Min_cycle;Max_cycle;Signal;HPM_P1;HPM_P2
2024/03/17 06:01:36;;;;;;;;;;;;;;;;;;5447525;23;19949;-49
2024/03/17 06:04:04;;;;;;;;;;;;;;;;;;4973054;28;20310;-49
2024/03/17 06:06:30;;;;;;;;;;;;;;;;;;4973214;28;19914;-46
2024/03/17 06:08:56;;;;;;;;;;;;;;;;;;4972954;28;19997;-49
2024/03/17 06:11:21;;;;;;;;;;;;;;;;;;4973256;28;19930;-50
2024/03/17 06:13:47;;;;;;;;;;;;;;;;;;4972206;28;19917;-50
2024/03/17 06:16:13;;;;;;;;;;;;;;;;;;4973031;28;19921;-49
2024/03/17 06:18:39;;;;;;;;;;;;;;;;;;4972695;28;19941;-49
2024/03/17 06:21:05;;;;;;;;;;;;;;;;;;4973192;28;20347;-51
2024/03/17 06:23:31;;;;;;;;;;;;;;;;;;4972667;28;20013;-50
2024/03/17 06:25:57;;;;;;;;;;;;;;;;;;4972925;28;19914;-49
2024/03/17 06:28:23;;;;;;;;;;;;;;;;;;4972591;28;19968;-48
2024/03/17 06:30:49;;;;;;;;;;;;;;;;;;4972733;28;19997;-50
2024/03/17 06:33:15;;;;;;;;;;;;;;;;;;4972592;28;20388;-48
2024/03/17 06:35:41;;;;;;;;;;;;;;;;;;4972610;28;19917;-47
2024/03/17 06:38:09;;;;;;;;;;;;;;;;;;4972678;28;19933;-48
2024/03/17 06:40:35;;;;;;;;;;;;;;;;;;4972873;28;19941;-50
2024/03/17 06:43:01;;;;;;;;;;;;;;;;;;4972657;28;19964;-48
2024/03/17 06:45:27;;;;;;;;;;;;;;;;;;4972319;28;19956;-49
2024/03/17 06:47:53;;;;;;;;;;;;;;;;;;4971436;28;19933;-51
2024/03/17 06:50:19;;;;;;;;;;;;;;;;;;4972481;28;19936;-51
2024/03/17 06:52:45;;;;;;;;;;;;;;;;;;4972490;28;20053;-50
2024/03/17 06:55:12;;;;;;;;;;;;;;;;;;4971358;28;20307;-46
2024/03/17 06:57:38;;;;;;;;;;;;;;;;;;4971760;28;19910;-48
2024/03/17 07:00:05;;;;;;;;;;;;;;;;;;4971493;28;19910;-50
2024/03/17 07:02:32;;;;;;;;;;;;;;;;;;4971899;28;19929;-51
2024/03/17 07:04:58;;;;;;;;;;;;;;;;;;4972165;28;19910;-50
2024/03/17 07:07:24;;;;;;;;;;;;;;;;;;4971998;28;20299;-48
2024/03/17 07:09:50;;;;;;;;;;;;;;;;;;4971702;28;19921;-50
2024/03/17 07:12:16;;;;;;;;;;;;;;;;;;4972055;28;20008;-48
2024/03/17 07:14:42;;;;;;;;;;;;;;;;;;4971820;28;19917;-47
2024/03/17 07:17:07;;;;;;;;;;;;;;;;;;4971964;28;20215;-50
2024/03/17 07:19:35;;;;;;;;;;;;;;;;;;4971932;28;19957;-48
2024/03/17 07:22:01;;;;;;;;;;;;;;;;;;4971694;28;19965;-49
2024/03/17 07:24:27;;;;;;;;;;;;;;;;;;4971125;28;19989;-47
2024/03/17 07:26:53;;;;;;;;;;;;;;;;;;4971457;28;19948;-50
2024/03/17 07:29:19;;;;;;;;;;;;;;;;;;4971549;28;19910;-48
2024/03/17 07:31:45;;;;;;;;;;;;;;;;;;4971619;28;19917;-51
2024/03/17 07:34:11;;;;;;;;;;;;;;;;;;4972430;28;19960;-49
2024/03/17 07:36:37;;;;;;;;;;;;;;;;;;4971770;28;20347;-48
2024/03/17 07:39:02;;;;;;;;;;;;;;;;;;4970234;28;19925;-50
2024/03/17 07:41:28;;;;;;;;;;;;;;;;;;4971665;28;19910;-49
2024/03/17 07:43:54;;;;;;;;;;;;;;;;;;4971764;28;19910;-49
2024/03/17 07:46:20;;;;;;;;;;;;;;;;;;4971740;28;20001;-46
2024/03/17 07:48:46;;;;;;;;;;;;;;;;;;4971645;28;20442;-51
2024/03/17 07:51:12;;;;;;;;;;;;;;;;;;4972003;28;19920;-51
2024/03/17 07:53:38;;;;;;;;;;;;;;;;;;4971997;28;19910;-51
2024/03/17 07:56:04;;;;;;;;;;;;;;;;;;4971535;28;20422;-50
2024/03/17 07:58:30;;;;;;;;;;;;;;;;;;4970284;28;19981;-49
2024/03/17 08:00:56;;;;;;;;;;;;;;;;;;4974490;28;20418;-48
2024/03/17 08:03:22;;;;;;;;;;;;;;;;;;4972256;28;19917;-46
2024/03/17 08:05:48;;;;;;;;;;;;;;;;;;4972334;28;19910;-50
2024/03/17 08:08:14;;;;;;;;;;;;;;;;;;4972074;28;19993;-49
2024/03/17 08:10:40;;;;;;;;;;;;;;;;;;4972480;28;20005;-51
2024/03/17 08:13:08;;;;;;;;;;;;;;;;;;4971976;28;19910;-47
2024/03/17 08:15:34;;;;;;;;;;;;;;;;;;4972065;28;20295;-50
2024/03/17 08:18:00;;;;;;;;;;;;;;;;;;4971164;28;19992;-47
2024/03/17 08:20:26;;;;;;;;;;;;;;;;;;4971374;28;19914;-47
2024/03/17 08:22:52;;;;;;;;;;;;;;;;;;4973436;28;19914;-48
2024/03/17 08:25:18;;;;;;;;;;;;;;;;;;4971790;28;19910;-51
2024/03/17 08:27:44;;;;;;;;;;;;;;;;;;4972223;28;20004;-53
2024/03/17 08:30:16;;;;;;;;;;;;;;;;;;4972146;28;20253;-48
2024/03/17 08:32:41;;;;;;;;;;;;;;;;;;4972455;28;19957;-49
2024/03/17 08:35:07;;;;;;;;;;;;;;;;;;4970722;28;19914;-51
2024/03/17 08:37:33;;;;;;;;;;;;;;;;;;4975183;28;19910;-52
2024/03/17 08:39:59;;;;;;;;;;;;;;;;;;4975575;28;20249;-50
2024/03/17 08:42:25;;;;;;;;;;;;;;;;;;4975408;28;19997;-48
2024/03/17 08:44:51;;;;;;;;;;;;;;;;;;4975530;28;20032;-44
2024/03/17 08:47:17;;;;;;;;;;;;;;;;;;4975580;28;19910;-44
2024/03/17 08:49:43;;;;;;;;;;;;;;;;;;4969979;28;20016;-48
2024/03/17 08:52:09;;;;;;;;;;;;;;;;;;4964296;28;19932;-45
2024/03/17 08:54:34;;;;;;;;;;;;;;;;;;4990184;28;19916;-44
2024/03/17 08:57:00;;;;;;;;;;;;;;;;;;4983600;28;19918;-43
2024/03/17 08:59:26;;;;;;;;;;;;;;;;;;4973574;28;19918;-46
2024/03/17 09:01:52;;;;;;;;;;;;;;;;;;4973965;28;19918;-48
2024/03/17 09:04:18;;;;;;;;;;;;;;;;;;4975113;28;20015;-44
2024/03/17 09:06:44;;;;;;;;;;;;;;;;;;4975253;28;20375;-47
2024/03/17 09:09:10;;;;;;;;;;;;;;;;;;4974943;28;19910;-45
2024/03/17 09:11:36;;;;;;;;;;;;;;;;;;4973978;28;20048;-47
2024/03/17 09:14:02;;;;;;;;;;;;;;;;;;4977055;28;19997;-47
2024/03/17 09:16:30;;;;;;;;;;;;;;;;;;4974017;28;19980;-45
2024/03/17 09:18:56;;;;;;;;;;;;;;;;;;4973665;28;19965;-45
2024/03/17 09:21:22;;;;;;;;;;;;;;;;;;4973822;28;19910;-44
2024/03/17 09:23:48;;;;;;;;;;;;;;;;;;4972597;28;20414;-43
2024/03/17 09:26:16;;;;;;;;;;;;;;;;;;4974168;28;20248;-44
2024/03/17 09:28:42;;;;;;;;;;;;;;;;;;4973600;28;19910;-44
2024/03/17 09:31:07;;;;;;;;;;;;;;;;;;4973486;28;20505;-44
2024/03/17 09:33:33;;;;;;;;;;;;;;;;;;4973712;28;20000;-45
2024/03/17 09:36:00;;;;;;;;;;;;;;;;;;4973519;28;19911;-44
2024/03/17 09:38:26;;;;;;;;;;;;;;;;;;4973363;28;19910;-45
2024/03/17 09:40:53;;;;;;;;;;;;;;;;;;4972201;28;19914;-45
2024/03/17 09:43:19;;;;;;;;;;;;;;;;;;4972507;28;19910;-44
2024/03/17 09:45:45;;;;;;;;;;;;;;;;;;4971785;28;20381;-42
2024/03/17 09:48:11;;;;;;;;;;;;;;;;;;4972881;28;19952;-45
2024/03/17 09:50:37;;;;;;;;;;;;;;;;;;4973093;28;19961;-47
2024/03/17 09:53:03;;;;;;;;;;;;;;;;;;4972201;28;19910;-46
2024/03/17 09:55:29;;;;;;;;;;;;;;;;;;4973435;28;19910;-46
2024/03/17 09:57:55;;;;;;;;;;;;;;;;;;4973117;28;19910;-47
2024/03/17 10:00:21;;;;;;;;;;;;;;;;;;4971205;28;19965;-46
2024/03/17 10:02:47;;;;;;;;;;;;;;;;;;4956244;28;19919;-45
2024/03/17 10:05:13;;;;;;;;;;;;;;;;;;4953791;29;20009;-45
2024/03/17 10:07:39;;;;;;;;;;;;;;;;;;4954261;28;20014;-46
2024/03/17 10:10:05;;;;;;;;;;;;;;;;;;4972870;28;19914;-44
2024/03/17 10:12:31;;;;;;;;;;;;;;;;;;4973141;28;19910;-44
2024/03/17 10:14:57;;;;;;;;;;;;;;;;;;4972580;28;19910;-46
2024/03/17 10:17:23;;;;;;;;;;;;;;;;;;4972926;28;19914;-45
2024/03/17 10:19:49;;;;;;;;;;;;;;;;;;4972733;28;19918;-47
2024/03/17 10:22:15;;;;;;;;;;;;;;;;;;4972938;28;19917;-44
2024/03/17 10:24:41;;;;;;;;;;;;;;;;;;4972321;28;19914;-46
2024/03/17 10:27:06;;;;;;;;;;;;;;;;;;4972651;28;20000;-44
2024/03/17 10:29:32;;;;;;;;;;;;;;;;;;4972465;28;19961;-44
2024/03/17 10:31:59;;;;;;;;;;;;;;;;;;4972630;28;19949;-43
2024/03/17 10:34:25;;;;;;;;;;;;;;;;;;4972392;28;20378;-47
2024/03/17 10:36:51;;;;;;;;;;;;;;;;;;4972338;28;19965;-44
2024/03/17 10:39:17;;;;;;;;;;;;;;;;;;4972436;28;19910;-46
2024/03/17 10:41:43;;;;;;;;;;;;;;;;;;4972300;28;19921;-45
2024/03/17 10:44:09;;;;;;;;;;;;;;;;;;4972430;28;20332;-46
2024/03/17 10:46:35;;;;;;;;;;;;;;;;;;4972439;28;20331;-47
2024/03/17 10:49:00;;;;;;;;;;;;;;;;;;4971972;28;20026;-44
2024/03/17 10:51:26;;;;;;;;;;;;;;;;;;4971935;28;19922;-46
2024/03/17 10:53:52;;;;;;;;;;;;;;;;;;4972270;28;19968;-43
2024/03/17 10:56:18;;;;;;;;;;;;;;;;;;4972581;28;19997;-45
2024/03/17 10:58:49;;;;;;;;;;;;;;;;;;4970442;28;20045;-46
2024/03/17 11:01:15;;;;;;;;;;;;;;;;;;4970925;28;20383;-43
2024/03/17 11:03:41;;;;;;;;;;;;;;;;;;4968324;28;19945;-44
2024/03/17 11:06:08;;;;;;;;;;;;;;;;;;4971936;28;19917;-47
2024/03/17 11:08:34;;;;;;;;;;;;;;;;;;4971849;28;19918;-44
2024/03/17 11:11:00;;;;;;;;;;;;;;;;;;4972014;28;19914;-44
2024/03/17 11:13:26;;;;;;;;;;;;;;;;;;4972094;28;20004;-43
2024/03/17 11:15:53;;;;;;;;;;;;;;;;;;4972258;28;20024;-45
2024/03/17 11:18:19;;;;;;;;;;;;;;;;;;4972407;28;19957;-44
2024/03/17 11:20:45;;;;;;;;;;;;;;;;;;4971777;28;19914;-47
2024/03/17 11:23:11;;;;;;;;;;;;;;;;;;4972038;28;20416;-44
2024/03/17 11:25:37;;;;;;;;;;;;;;;;;;4971908;28;19910;-45
2024/03/17 11:28:02;;;;;;;;;;;;;;;;;;4971974;28;19915;-45
2024/03/17 11:30:28;;;;;;;;;;;;;;;;;;4971647;28;20058;-46
2024/03/17 11:32:54;;;;;;;;;;;;;;;;;;4971622;28;19989;-45
2024/03/17 11:35:21;;;;;;;;;;;;;;;;;;4970612;28;19915;-45
2024/03/17 11:37:50;;;;;;;;;;;;;;;;;;4970928;28;19911;-45
2024/03/17 11:40:17;;;;;;;;;;;;;;;;;;4970656;28;19910;-44
2024/03/17 11:42:42;;;;;;;;;;;;;;;;;;4971789;28;19914;-45
2024/03/17 11:45:09;;;;;;;;;;;;;;;;;;4971236;28;19910;-43
2024/03/17 11:47:35;;;;;;;;;;;;;;;;;;4971644;28;19957;-47
2024/03/17 11:50:02;;;;;;;;;;;;;;;;;;4971259;28;19976;-44
2024/03/17 11:52:27;;;;;;;;;;;;;;;;;;4971620;28;20001;-48
2024/03/17 11:54:53;;;;;;;;;;;;;;;;;;4971774;28;20516;-47
2024/03/17 11:57:20;;;;;;;;;;;;;;;;;;4971717;28;19917;-44
2024/03/17 11:59:46;;;;;;;;;;;;;;;;;;4971327;28;19913;-45
2024/03/17 12:02:12;;;;;;;;;;;;;;;;;;4969754;28;20235;-46
2024/03/17 12:04:38;;;;;;;;;;;;;;;;;;4969496;28;19914;-44
2024/03/17 12:07:04;;;;;;;;;;;;;;;;;;4969804;28;19914;-47
2024/03/17 12:09:30;;;;;;;;;;;;;;;;;;4970320;28;20348;-45
2024/03/17 12:11:56;;;;;;;;;;;;;;;;;;4974493;28;19917;-44
2024/03/17 12:14:22;;;;;;;;;;;;;;;;;;4974787;28;20205;-46
2024/03/17 12:16:48;;;;;;;;;;;;;;;;;;4974127;28;19910;-44
2024/03/17 12:19:16;;;;;;;;;;;;;;;;;;4974183;28;19910;-46
2024/03/17 12:21:42;;;;;;;;;;;;;;;;;;4974453;28;19910;-44
2024/03/17 12:24:07;;;;;;;;;;;;;;;;;;4974139;28;19910;-46
2024/03/17 12:26:35;;;;;;;;;;;;;;;;;;4973815;28;20043;-46
2024/03/17 12:29:00;;;;;;;;;;;;;;;;;;4973159;28;19920;-44
2024/03/17 12:31:26;;;;;;;;;;;;;;;;;;4973377;28;20037;-44
2024/03/17 12:33:52;;;;;;;;;;;;;;;;;;4974409;28;20338;-44
2024/03/17 12:36:18;;;;;;;;;;;;;;;;;;4974181;28;19906;-44
2024/03/17 12:38:44;;;;;;;;;;;;;;;;;;4973305;28;20399;-44
2024/03/17 12:41:10;;;;;;;;;;;;;;;;;;4973824;28;20041;-44
2024/03/17 12:43:37;;;;;;;;;;;;;;;;;;4973188;28;19926;-44
2024/03/17 12:46:02;;;;;;;;;;;;;;;;;;4973592;28;19988;-45
2024/03/17 12:48:28;;;;;;;;;;;;;;;;;;4973661;28;19953;-44
2024/03/17 12:50:54;;;;;;;;;;;;;;;;;;4973160;28;19918;-45
2024/03/17 12:53:22;;;;;;;;;;;;;;;;;;4973252;28;19921;-46
2024/03/17 13:01:17;;;;;;;;;;;;;;;;;;4973480;28;19933;-48
2024/03/17 13:03:44;;;;;;;;;;;;;;;;;;4973815;28;19918;-48
2024/03/17 13:06:10;;;;;;;;;;;;;;;;;;4972790;28;19969;-45
2024/03/17 13:08:36;;;;;;;;;;;;;;;;;;4973626;28;19914;-46
2024/03/17 13:11:05;;;;;;;;;;;;;;;;;;4969848;28;19984;-43
2024/03/17 13:13:31;;;;;;;;;;;;;;;;;;4987390;28;20503;-44
2024/03/17 13:15:58;;;;;;;;;;;;;;;;;;4970723;28;19921;-45
2024/03/17 13:18:24;;;;;;;;;;;;;;;;;;4973826;28;19926;-45
2024/03/17 13:20:51;;;;;;;;;;;;;;;;;;4971157;28;19914;-45
2024/03/17 13:23:17;;;;;;;;;;;;;;;;;;4975553;28;20384;-47
2024/03/17 13:25:44;;;;;;;;;;;;;;;;;;4973226;28;19933;-49
2024/03/17 13:28:11;;;;;;;;;;;;;;;;;;4971693;28;20004;-47
2024/03/17 13:30:36;;;;;;;;;;;;;;;;;;4976363;28;19932;-49
2024/03/17 13:33:08;;;;;;;;;;;;;;;;;;4972761;28;19914;-47
2024/03/17 13:35:34;;;;;;;;;;;;;;;;;;4968839;28;20021;-45
2024/03/17 13:38:02;;;;;;;;;;;;;;;;;;4971856;28;19985;-45
2024/03/17 13:40:28;;;;;;;;;;;;;;;;;;4972542;28;19969;-45
2024/03/17 13:42:54;;;;;;;;;;;;;;;;;;4974017;28;19977;-47
2024/03/17 13:45:20;;;;;;;;;;;;;;;;;;4974854;28;20387;-46
2024/03/17 13:47:46;;;;;;;;;;;;;;;;;;4972284;28;19953;-48
2024/03/17 13:50:15;;;;;;;;;;;;;;;;;;4971082;28;19918;-47
2024/03/17 13:52:41;;;;;;;;;;;;;;;;;;4970501;28;20411;-46
2024/03/17 13:55:06;;;;;;;;;;;;;;;;;;4971575;28;19956;-46
2024/03/17 13:57:32;;;;;;;;;;;;;;;;;;4971401;28;19944;-46
2024/03/17 13:59:58;;;;;;;;;;;;;;;;;;4970983;28;19914;-45
2024/03/17 14:02:24;;;;;;;;;;;;;;;;;;4972045;28;19918;-48
2024/03/17 14:04:50;;;;;;;;;;;;;;;;;;4970741;28;20403;-49
2024/03/17 14:07:16;;;;;;;;;;;;;;;;;;4987351;28;19910;-48
2024/03/17 14:09:42;;;;;;;;;;;;;;;;;;4971835;28;19910;-45
2024/03/17 14:12:08;;;;;;;;;;;;;;;;;;4971008;28;19914;-46
2024/03/17 14:14:33;;;;;;;;;;;;;;;;;;4971462;28;19914;-46
2024/03/17 14:16:59;;;;;;;;;;;;;;;;;;4985758;28;19914;-46
2024/03/17 14:19:26;;;;;;;;;;;;;;;;;;4969104;28;20430;-44
2024/03/17 14:21:52;;;;;;;;;;;;;;;;;;4968503;28;19914;-47
2024/03/17 14:24:17;;;;;;;;;;;;;;;;;;4970228;28;19932;-46
2024/03/17 14:26:44;;;;;;;;;;;;;;;;;;4969333;28;20008;-44
2024/03/17 14:29:10;;;;;;;;;;;;;;;;;;4969770;28;20404;-47
2024/03/17 14:31:37;;;;;;;;;;;;;;;;;;4984271;28;20005;-48
2024/03/17 14:34:03;;;;;;;;;;;;;;;;;;4969219;28;19922;-45
2024/03/17 14:36:30;;;;;;;;;;;;;;;;;;4967900;28;19961;-49
2024/03/17 14:38:56;;;;;;;;;;;;;;;;;;4969901;28;19936;-46
2024/03/17 14:41:22;;;;;;;;;;;;;;;;;;4969615;28;20009;-45
2024/03/17 14:43:48;;;;;;;;;;;;;;;;;;4969417;28;19914;-44
2024/03/17 14:46:14;;;;;;;;;;;;;;;;;;4969763;28;19917;-46
2024/03/17 14:48:40;;;;;;;;;;;;;;;;;;4969905;28;20372;-47
2024/03/17 14:51:06;;;;;;;;;;;;;;;;;;4969853;28;20311;-49
2024/03/17 14:53:32;;;;;;;;;;;;;;;;;;4970950;28;19921;-45
2024/03/17 14:55:59;;;;;;;;;;;;;;;;;;4970054;28;20066;-48
2024/03/17 14:58:24;;;;;;;;;;;;;;;;;;4969896;28;19920;-46
2024/03/17 15:00:50;;;;;;;;;;;;;;;;;;4972737;28;19914;-46
2024/03/17 15:03:16;;;;;;;;;;;;;;;;;;4971565;28;19938;-48
2024/03/17 15:05:42;;;;;;;;;;;;;;;;;;4969832;28;19949;-46
2024/03/17 15:08:09;;;;;;;;;;;;;;;;;;4968304;28;20361;-48
2024/03/17 15:10:35;;;;;;;;;;;;;;;;;;4969910;28;19918;-44
2024/03/17 15:13:01;;;;;;;;;;;;;;;;;;4969741;28;19921;-44
2024/03/17 15:15:28;;;;;;;;;;;;;;;;;;4971101;28;20404;-45
2024/03/17 15:17:54;;;;;;;;;;;;;;;;;;4968225;28;19921;-44
2024/03/17 15:20:21;;;;;;;;;;;;;;;;;;4970374;28;19918;-44
2024/03/17 15:22:47;;;;;;;;;;;;;;;;;;4985769;28;19918;-44
2024/03/17 15:25:13;;;;;;;;;;;;;;;;;;4969851;28;20311;-45
2024/03/17 15:27:39;;;;;;;;;;;;;;;;;;4971227;28;19921;-47
2024/03/17 15:30:05;;;;;;;;;;;;;;;;;;4970022;28;20307;-45
2024/03/17 15:32:30;;;;;;;;;;;;;;;;;;4969125;28;19920;-45
2024/03/17 15:34:59;;;;;;;;;;;;;;;;;;4970868;28;19914;-49
2024/03/17 15:37:24;;;;;;;;;;;;;;;;;;4984453;28;19928;-44
2024/03/17 15:39:52;;;;;;;;;;;;;;;;;;4970571;28;20009;-46
2024/03/17 15:42:18;;;;;;;;;;;;;;;;;;4969821;28;19914;-47
2024/03/17 15:44:44;;;;;;;;;;;;;;;;;;4970416;28;19920;-46
2024/03/17 15:47:09;;;;;;;;;;;;;;;;;;4971150;28;19922;-48
2024/03/17 15:49:35;;;;;;;;;;;;;;;;;;4973282;28;20403;-46
2024/03/17 15:52:01;;;;;;;;;;;;;;;;;;4973629;28;19945;-45
2024/03/17 15:54:28;;;;;;;;;;;;;;;;;;4974046;28;19915;-45
2024/03/17 15:56:54;;;;;;;;;;;;;;;;;;4988322;28;19914;-48
2024/03/17 15:59:22;;;;;;;;;;;;;;;;;;4974151;28;19960;-44
2024/03/17 16:01:48;;;;;;;;;;;;;;;;;;4988976;28;19942;-45
2024/03/17 16:04:14;;;;;;;;;;;;;;;;;;4973253;28;19921;-48
2024/03/17 16:06:40;;;;;;;;;;;;;;;;;;4973975;28;20308;-47
2024/03/17 16:09:06;;;;;;;;;;;;;;;;;;4973446;28;19915;-46
2024/03/17 16:11:32;;;;;;;;;;;;;;;;;;4972364;28;19918;-44
2024/03/17 16:13:58;;;;;;;;;;;;;;;;;;4976681;28;19930;-47
2024/03/17 16:16:25;;;;;;;;;;;;;;;;;;4974425;28;20261;-47
2024/03/17 16:18:51;;;;;;;;;;;;;;;;;;4973575;28;19914;-44
2024/03/17 16:21:17;;;;;;;;;;;;;;;;;;4974426;28;20276;-47
2024/03/17 16:23:43;;;;;;;;;;;;;;;;;;4975345;28;19929;-44
2024/03/17 16:26:09;;;;;;;;;;;;;;;;;;4971445;28;20012;-44
2024/03/17 16:28:34;;;;;;;;;;;;;;;;;;4972568;28;19914;-46
2024/03/17 16:31:00;;;;;;;;;;;;;;;;;;4975694;28;19918;-47
2024/03/17 16:33:26;;;;;;;;;;;;;;;;;;4992878;28;19957;-47
2024/03/17 16:35:52;;;;;;;;;;;;;;;;;;4975382;28;19918;-45
2024/03/17 16:38:18;;;;;;;;;;;;;;;;;;4976255;28;19996;-47
2024/03/17 16:40:44;;;;;;;;;;;;;;;;;;4976934;28;20352;-47
2024/03/17 16:43:10;;;;;;;;;;;;;;;;;;4975489;28;19961;-44
2024/03/17 16:45:37;;;;;;;;;;;;;;;;;;4973725;28;20336;-46
2024/03/17 16:48:02;;;;;;;;;;;;;;;;;;4976494;28;19933;-45
2024/03/17 16:50:28;;;;;;;;;;;;;;;;;;4972443;28;19918;-49
2024/03/17 16:52:54;;;;;;;;;;;;;;;;;;4974833;28;19914;-44
2024/03/17 16:55:20;;;;;;;;;;;;;;;;;;4978401;28;19914;-44
2024/03/17 16:57:46;;;;;;;;;;;;;;;;;;4983805;28;19922;-45
2024/03/17 17:00:17;;;;;;;;;;;;;;;;;;4969099;28;19956;-43
2024/03/17 17:02:44;;;;;;;;;;;;;;;;;;4985686;28;20017;-44
2024/03/17 17:05:13;;;;;;;;;;;;;;;;;;4970302;28;19915;-44
2024/03/17 17:07:40;;;;;;;;;;;;;;;;;;4971041;28;19921;-44
2024/03/17 17:10:06;;;;;;;;;;;;;;;;;;4986023;28;20017;-45
2024/03/17 17:12:32;;;;;;;;;;;;;;;;;;4970959;28;20048;-45
2024/03/17 17:14:57;;;;;;;;;;;;;;;;;;4971689;28;19921;-44
2024/03/17 17:17:23;;;;;;;;;;;;;;;;;;4971835;28;20303;-47
2024/03/17 17:19:52;;;;;;;;;;;;;;;;;;4970563;28;19976;-45
2024/03/17 17:22:20;;;;;;;;;;;;;;;;;;4965700;28;19914;-44
2024/03/17 17:24:45;;;;;;;;;;;;;;;;;;4972287;28;19914;-44
2024/03/17 17:27:12;;;;;;;;;;;;;;;;;;4981485;28;20000;-46
2024/03/17 17:29:39;;;;;;;;;;;;;;;;;;4974349;28;19914;-45
2024/03/17 17:32:06;;;;;;;;;;;;;;;;;;4985622;28;19917;-44
2024/03/17 17:34:32;;;;;;;;;;;;;;;;;;4972262;28;19914;-43
2024/03/17 17:36:59;;;;;;;;;;;;;;;;;;4975990;28;19922;-44
2024/03/17 17:39:25;;;;;;;;;;;;;;;;;;4971601;28;20322;-44
2024/03/17 17:41:51;;;;;;;;;;;;;;;;;;4969549;28;19914;-45
2024/03/17 17:44:17;;;;;;;;;;;;;;;;;;4971053;28;20010;-45
2024/03/17 17:46:43;;;;;;;;;;;;;;;;;;4972384;28;19918;-51
2024/03/17 17:49:09;;;;;;;;;;;;;;;;;;4971031;28;19914;-44
2024/03/17 17:51:35;;;;;;;;;;;;;;;;;;4989281;28;19980;-46
2024/03/17 17:54:01;;;;;;;;;;;;;;;;;;4972669;28;20361;-45
2024/03/17 17:56:27;;;;;;;;;;;;;;;;;;4971243;28;19936;-44
2024/03/17 17:58:53;;;;;;;;;;;;;;;;;;4970660;28;20030;-44
2024/03/17 18:01:19;;;;;;;;;;;;;;;;;;4970534;28;20388;-44
2024/03/17 18:03:45;;;;;;;;;;;;;;;;;;4972599;28;19957;-45
2024/03/17 18:06:14;;;;;;;;;;;;;;;;;;4969795;28;19918;-44
2024/03/17 18:08:40;;;;;;;;;;;;;;;;;;4973636;28;20304;-43
2024/03/17 18:11:06;;;;;;;;;;;;;;;;;;4971003;28;19918;-46
2024/03/17 18:13:35;;;;;;;;;;;;;;;;;;4969058;28;20225;-47
2024/03/17 18:16:01;;;;;;;;;;;;;;;;;;4970608;28;19969;-44
2024/03/17 18:18:26;;;;;;;;;;;;;;;;;;4972424;28;19920;-45
2024/03/17 18:20:52;;;;;;;;;;;;;;;;;;4970579;28;19965;-43
2024/03/17 18:23:18;;;;;;;;;;;;;;;;;;4969683;28;19922;-44
2024/03/17 18:25:44;;;;;;;;;;;;;;;;;;4974003;28;19999;-44
2024/03/17 18:28:10;;;;;;;;;;;;;;;;;;4971191;28;19965;-44
2024/03/17 18:30:36;;;;;;;;;;;;;;;;;;4967781;28;20344;-45
2024/03/17 18:33:03;;;;;;;;;;;;;;;;;;4971659;28;19914;-44
2024/03/17 18:35:30;;;;;;;;;;;;;;;;;;4983556;28;19984;-44
2024/03/17 18:37:55;;;;;;;;;;;;;;;;;;4972374;28;19918;-44
2024/03/17 18:40:23;;;;;;;;;;;;;;;;;;4971540;28;19965;-45
2024/03/17 18:42:49;;;;;;;;;;;;;;;;;;4968711;28;20388;-44
2024/03/17 18:45:15;;;;;;;;;;;;;;;;;;4971904;28;19948;-47
2024/03/17 18:47:41;;;;;;;;;;;;;;;;;;4969014;28;20407;-44
2024/03/17 18:50:08;;;;;;;;;;;;;;;;;;4973085;28;19918;-46
2024/03/17 18:52:33;;;;;;;;;;;;;;;;;;4983295;28;20008;-44
2024/03/17 18:54:59;;;;;;;;;;;;;;;;;;4972305;28;20002;-44
2024/03/17 18:57:25;;;;;;;;;;;;;;;;;;4969549;28;20036;-44
2024/03/17 18:59:51;;;;;;;;;;;;;;;;;;4971245;28;20438;-44
2024/03/17 19:02:18;;;;;;;;;;;;;;;;;;4970519;28;20021;-44
2024/03/17 19:04:45;;;;;;;;;;;;;;;;;;4971620;28;20055;-45
2024/03/17 19:07:11;;;;;;;;;;;;;;;;;;4969865;28;20367;-44
2024/03/17 19:09:37;;;;;;;;;;;;;;;;;;4969562;28;19921;-46
2024/03/17 19:12:03;;;;;;;;;;;;;;;;;;4968835;28;19922;-44
2024/03/17 19:14:29;;;;;;;;;;;;;;;;;;4982459;28;19921;-44
2024/03/17 19:16:55;;;;;;;;;;;;;;;;;;4971492;28;19914;-44
2024/03/17 19:19:21;;;;;;;;;;;;;;;;;;4968139;28;20060;-44
2024/03/17 19:21:51;;;;;;;;;;;;;;;;;;4968299;28;19923;-45
2024/03/17 19:24:17;;;;;;;;;;;;;;;;;;4970100;28;19913;-44
2024/03/17 19:26:44;;;;;;;;;;;;;;;;;;4967862;28;20043;-44
2024/03/17 19:29:10;;;;;;;;;;;;;;;;;;4967345;28;19914;-44
2024/03/17 19:31:36;;;;;;;;;;;;;;;;;;4969060;28;19929;-44
2024/03/17 19:34:04;;;;;;;;;;;;;;;;;;4973023;28;19932;-44
2024/03/17 19:36:30;;;;;;;;;;;;;;;;;;4980866;28;19920;-45
2024/03/17 19:38:56;;;;;;;;;;;;;;;;;;4974357;28;20368;-44
2024/03/17 19:41:22;;;;;;;;;;;;;;;;;;4966843;28;20139;-44
2024/03/17 19:43:50;;;;;;;;;;;;;;;;;;4973665;28;20363;-44
2024/03/17 19:46:20;;;;;;;;;;;;;;;;;;4969108;28;19922;-45
2024/03/17 19:48:49;;;;;;;;;;;;;;;;;;4971488;28;20022;-44
2024/03/17 19:51:15;;;;;;;;;;;;;;;;;;4967242;28;19981;-44
2024/03/17 19:53:41;;;;;;;;;;;;;;;;;;4975688;28;19914;-44
2024/03/17 19:56:10;;;;;;;;;;;;;;;;;;4965162;28;19917;-44
2024/03/17 19:58:36;;;;;;;;;;;;;;;;;;4968749;28;19924;-45
2024/03/17 20:01:02;;;;;;;;;;;;;;;;;;4969467;28;20366;-44
2024/03/17 20:03:28;;;;;;;;;;;;;;;;;;4972125;28;19953;-44
2024/03/17 20:05:54;;;;;;;;;;;;;;;;;;4968059;28;19922;-44
2024/03/17 20:08:21;;;;;;;;;;;;;;;;;;4973412;28;19914;-45
2024/03/17 20:10:48;;;;;;;;;;;;;;;;;;4951333;28;20300;-46
2024/03/17 20:13:14;;;;;;;;;;;;;;;;;;4965833;28;19914;-45
2024/03/17 20:15:39;;;;;;;;;;;;;;;;;;4974055;28;19914;-46
2024/03/17 20:18:08;;;;;;;;;;;;;;;;;;4977453;28;20399;-44
2024/03/17 20:20:35;;;;;;;;;;;;;;;;;;4968698;28;19914;-44
2024/03/17 20:23:02;;;;;;;;;;;;;;;;;;4972916;28;20273;-44
2024/03/17 20:25:28;;;;;;;;;;;;;;;;;;4970183;28;19921;-45
2024/03/17 20:27:56;;;;;;;;;;;;;;;;;;4980106;28;19918;-44
2024/03/17 20:30:22;;;;;;;;;;;;;;;;;;4989958;28;20303;-44
2024/03/17 20:32:47;;;;;;;;;;;;;;;;;;4986609;28;19917;-44
2024/03/17 20:35:13;;;;;;;;;;;;;;;;;;4992576;28;19914;-45
2024/03/17 20:37:39;;;;;;;;;;;;;;;;;;4983119;28;20328;-44
2024/03/17 20:40:07;;;;;;;;;;;;;;;;;;4993152;28;19960;-44
2024/03/17 20:42:33;;;;;;;;;;;;;;;;;;4992900;28;19914;-44
2024/03/17 20:44:59;;;;;;;;;;;;;;;;;;4991477;28;20184;-44
2024/03/17 20:47:25;;;;;;;;;;;;;;;;;;4973896;28;19910;-45
2024/03/17 20:49:51;;;;;;;;;;;;;;;;;;4975350;28;19914;-45
2024/03/17 20:52:17;;;;;;;;;;;;;;;;;;4987732;28;19949;-45
2024/03/17 20:54:44;;;;;;;;;;;;;;;;;;4978542;28;20311;-44
2024/03/17 20:57:10;;;;;;;;;;;;;;;;;;4971264;28;19914;-44
2024/03/17 20:59:36;;;;;;;;;;;;;;;;;;4973898;28;20342;-45
2024/03/17 21:02:02;;;;;;;;;;;;;;;;;;4972978;28;19937;-45
2024/03/17 21:04:28;;;;;;;;;;;;;;;;;;4989851;28;19914;-44
2024/03/17 21:06:54;;;;;;;;;;;;;;;;;;4971640;28;19914;-45
2024/03/17 21:09:19;;;;;;;;;;;;;;;;;;4973710;28;19910;-44
2024/03/17 21:11:47;;;;;;;;;;;;;;;;;;4971525;28;19926;-44
2024/03/17 21:14:12;;;;;;;;;;;;;;;;;;4972402;28;19972;-45
2024/03/17 21:16:40;;;;;;;;;;;;;;;;;;4973427;28;20291;-45
2024/03/17 21:19:05;;;;;;;;;;;;;;;;;;4972762;28;20284;-44
2024/03/17 21:21:31;;;;;;;;;;;;;;;;;;4988578;28;19910;-44
2024/03/17 21:23:57;;;;;;;;;;;;;;;;;;4987541;28;19918;-46
2024/03/17 21:26:23;;;;;;;;;;;;;;;;;;4977015;28;20000;-44
2024/03/17 21:28:49;;;;;;;;;;;;;;;;;;4971903;28;19914;-45
2024/03/17 21:31:15;;;;;;;;;;;;;;;;;;4969784;28;19918;-44
2024/03/17 21:33:41;;;;;;;;;;;;;;;;;;4971579;28;20471;-44
2024/03/17 21:36:07;;;;;;;;;;;;;;;;;;4972021;28;20384;-44
2024/03/17 21:38:33;;;;;;;;;;;;;;;;;;4969265;28;19922;-44
2024/03/17 21:40:59;;;;;;;;;;;;;;;;;;4986556;28;19945;-44
2024/03/17 21:43:24;;;;;;;;;;;;;;;;;;4974177;28;19933;-45
2024/03/17 21:45:50;;;;;;;;;;;;;;;;;;4977683;28;19950;-45
2024/03/17 21:48:16;;;;;;;;;;;;;;;;;;4985558;28;20380;-45
2024/03/17 21:50:42;;;;;;;;;;;;;;;;;;4979027;28;19977;-45
2024/03/17 21:53:08;;;;;;;;;;;;;;;;;;4979548;28;20295;-44
2024/03/17 21:55:34;;;;;;;;;;;;;;;;;;4987466;28;19921;-45
2024/03/17 21:58:00;;;;;;;;;;;;;;;;;;4987152;28;19917;-44
2024/03/17 22:00:28;;;;;;;;;;;;;;;;;;4971869;28;19941;-45
2024/03/17 22:02:54;;;;;;;;;;;;;;;;;;4986701;28;19922;-45
2024/03/17 22:05:20;;;;;;;;;;;;;;;;;;4976510;28;19922;-44
2024/03/17 22:07:46;;;;;;;;;;;;;;;;;;4971002;28;19929;-45
2024/03/17 22:10:12;;;;;;;;;;;;;;;;;;4971431;28;20136;-44
2024/03/17 22:12:38;;;;;;;;;;;;;;;;;;4985187;28;19914;-44
2024/03/17 22:15:04;;;;;;;;;;;;;;;;;;4988188;28;19914;-45
2024/03/17 22:17:31;;;;;;;;;;;;;;;;;;4971026;28;19914;-44
2024/03/17 22:19:57;;;;;;;;;;;;;;;;;;4972197;28;19917;-46
2024/03/17 22:22:24;;;;;;;;;;;;;;;;;;4972217;28;20376;-44
2024/03/17 22:24:50;;;;;;;;;;;;;;;;;;4973780;28;19914;-44
2024/03/17 22:27:16;;;;;;;;;;;;;;;;;;4971465;28;19914;-44
2024/03/17 22:29:42;;;;;;;;;;;;;;;;;;4971464;28;20292;-44
2024/03/17 22:32:08;;;;;;;;;;;;;;;;;;4989360;28;19918;-44
2024/03/17 22:34:33;;;;;;;;;;;;;;;;;;4987207;28;19913;-44
2024/03/17 22:36:59;;;;;;;;;;;;;;;;;;4991096;28;19937;-44
2024/03/17 22:39:25;;;;;;;;;;;;;;;;;;4991318;28;19917;-45
2024/03/17 22:41:52;;;;;;;;;;;;;;;;;;4989010;28;19953;-45
2024/03/17 22:44:18;;;;;;;;;;;;;;;;;;4988874;28;19914;-44